sensor_id;sensor_type;location;lat;lon;timestamp;pressure;altitude;pressure_sealevel;temperature;humidity
76448;BME280;65284;51.040;13.722;2023-03-31T00:01:36;99119.91;;;10.59;73.72
76448;BME280;65284;51.040;13.722;2023-03-31T00:04:10;99118.25;;;10.58;73.88
76448;BME280;65284;51.040;13.722;2023-03-31T00:06:39;99119.09;;;10.58;73.69
76448;BME280;65284;51.040;13.722;2023-03-31T00:09:10;99112.59;;;10.61;73.65
76448;BME280;65284;51.040;13.722;2023-03-31T00:11:37;99111.31;;;10.57;73.47
76448;BME280;65284;51.040;13.722;2023-03-31T00:14:05;99114.97;;;10.56;74.13
76448;BME280;65284;51.040;13.722;2023-03-31T00:16:35;99103.97;;;10.59;74.06
76448;BME280;65284;51.040;13.722;2023-03-31T00:19:03;99113.22;;;10.63;73.62
76448;BME280;65284;51.040;13.722;2023-03-31T00:21:29;99100.78;;;10.63;73.48
76448;BME280;65284;51.040;13.722;2023-03-31T00:24:04;99103.88;;;10.67;73.46
76448;BME280;65284;51.040;13.722;2023-03-31T00:26:32;99099.97;;;10.63;73.58
76448;BME280;65284;51.040;13.722;2023-03-31T00:28:59;99106.91;;;10.64;73.64
76448;BME280;65284;51.040;13.722;2023-03-31T00:31:26;99103.50;;;10.70;73.27
76448;BME280;65284;51.040;13.722;2023-03-31T00:33:53;99090.25;;;10.70;73.36
76448;BME280;65284;51.040;13.722;2023-03-31T00:36:22;99091.44;;;10.67;73.41
76448;BME280;65284;51.040;13.722;2023-03-31T00:39:00;99102.97;;;10.60;73.46
76448;BME280;65284;51.040;13.722;2023-03-31T00:41:28;99091.25;;;10.69;73.39
76448;BME280;65284;51.040;13.722;2023-03-31T00:44:14;99090.81;;;10.65;73.78
76448;BME280;65284;51.040;13.722;2023-03-31T00:46:52;99091.78;;;10.64;73.29
76448;BME280;65284;51.040;13.722;2023-03-31T00:49:28;99079.09;;;10.60;73.89
76448;BME280;65284;51.040;13.722;2023-03-31T00:52:22;99077.63;;;10.57;73.86
76448;BME280;65284;51.040;13.722;2023-03-31T00:54:54;99076.97;;;10.55;74.15
76448;BME280;65284;51.040;13.722;2023-03-31T00:57:22;99069.66;;;10.57;74.12
76448;BME280;65284;51.040;13.722;2023-03-31T00:59:56;99056.28;;;10.65;73.81
76448;BME280;65284;51.040;13.722;2023-03-31T01:02:24;99060.06;;;10.56;74.00
76448;BME280;65284;51.040;13.722;2023-03-31T01:04:57;99052.91;;;10.57;74.05
76448;BME280;65284;51.040;13.722;2023-03-31T01:07:36;99057.41;;;10.56;74.04
76448;BME280;65284;51.040;13.722;2023-03-31T01:10:04;99053.06;;;10.55;74.36
76448;BME280;65284;51.040;13.722;2023-03-31T01:12:33;99044.94;;;10.57;73.95
76448;BME280;65284;51.040;13.722;2023-03-31T01:15:02;99037.78;;;10.57;73.80
76448;BME280;65284;51.040;13.722;2023-03-31T01:17:30;99029.00;;;10.57;73.52
76448;BME280;65284;51.040;13.722;2023-03-31T01:20:16;99021.88;;;10.57;73.95
76448;BME280;65284;51.040;13.722;2023-03-31T01:23:13;99028.91;;;10.65;73.68
76448;BME280;65284;51.040;13.722;2023-03-31T01:26:00;99023.97;;;10.62;73.78
76448;BME280;65284;51.040;13.722;2023-03-31T01:32:12;99023.44;;;10.52;74.01
76448;BME280;65284;51.040;13.722;2023-03-31T01:40:46;99006.97;;;10.41;74.13
76448;BME280;65284;51.040;13.722;2023-03-31T01:43:23;99007.34;;;10.38;74.39
76448;BME280;65284;51.040;13.722;2023-03-31T01:46:20;99002.19;;;10.37;74.20
76448;BME280;65284;51.040;13.722;2023-03-31T01:51:49;99003.09;;;10.44;73.98
76448;BME280;65284;51.040;13.722;2023-03-31T01:59:39;98983.22;;;10.25;74.41
76448;BME280;65284;51.040;13.722;2023-03-31T02:02:16;98983.09;;;10.27;74.57
76448;BME280;65284;51.040;13.722;2023-03-31T02:04:54;98981.16;;;10.35;74.14
76448;BME280;65284;51.040;13.722;2023-03-31T02:07:30;98980.53;;;10.33;74.11
76448;BME280;65284;51.040;13.722;2023-03-31T02:09:59;98969.25;;;10.31;74.31
76448;BME280;65284;51.040;13.722;2023-03-31T02:12:30;98961.19;;;10.39;73.94
76448;BME280;65284;51.040;13.722;2023-03-31T02:14:58;98956.25;;;10.36;73.91
76448;BME280;65284;51.040;13.722;2023-03-31T02:17:27;98955.88;;;10.39;73.98
76448;BME280;65284;51.040;13.722;2023-03-31T02:20:02;98954.03;;;10.25;74.17
76448;BME280;65284;51.040;13.722;2023-03-31T02:22:33;98952.78;;;10.21;74.72
76448;BME280;65284;51.040;13.722;2023-03-31T02:25:03;98955.06;;;10.24;74.20
76448;BME280;65284;51.040;13.722;2023-03-31T02:27:34;98940.69;;;10.18;74.73
76448;BME280;65284;51.040;13.722;2023-03-31T02:30:03;98934.75;;;10.16;74.48
76448;BME280;65284;51.040;13.722;2023-03-31T02:32:33;98927.50;;;10.25;74.43
76448;BME280;65284;51.040;13.722;2023-03-31T02:35:01;98935.56;;;10.17;74.59
76448;BME280;65284;51.040;13.722;2023-03-31T02:37:28;98929.88;;;10.20;74.38
76448;BME280;65284;51.040;13.722;2023-03-31T02:39:57;98939.22;;;10.16;74.22
76448;BME280;65284;51.040;13.722;2023-03-31T02:42:24;98942.78;;;10.23;74.21
76448;BME280;65284;51.040;13.722;2023-03-31T02:44:51;98927.59;;;10.17;74.33
76448;BME280;65284;51.040;13.722;2023-03-31T02:47:19;98934.75;;;10.16;74.37
76448;BME280;65284;51.040;13.722;2023-03-31T02:49:51;98926.63;;;10.18;74.17
76448;BME280;65284;51.040;13.722;2023-03-31T03:00:48;98914.81;;;10.06;74.63
76448;BME280;65284;51.040;13.722;2023-03-31T03:03:39;98916.19;;;10.01;74.68
76448;BME280;65284;51.040;13.722;2023-03-31T03:09:12;98905.22;;;10.05;74.72
76448;BME280;65284;51.040;13.722;2023-03-31T03:11:54;98910.88;;;10.01;74.60
76448;BME280;65284;51.040;13.722;2023-03-31T03:14:43;98902.94;;;10.01;74.79
76448;BME280;65284;51.040;13.722;2023-03-31T03:17:22;98907.94;;;9.96;74.67
76448;BME280;65284;51.040;13.722;2023-03-31T03:19:52;98908.22;;;10.01;74.48
76448;BME280;65284;51.040;13.722;2023-03-31T03:22:20;98896.22;;;10.06;74.00
76448;BME280;65284;51.040;13.722;2023-03-31T03:24:47;98890.09;;;10.05;74.63
76448;BME280;65284;51.040;13.722;2023-03-31T03:27:13;98886.91;;;10.10;74.26
76448;BME280;65284;51.040;13.722;2023-03-31T03:29:39;98886.69;;;10.26;73.44
76448;BME280;65284;51.040;13.722;2023-03-31T03:32:07;98883.50;;;10.16;73.62
76448;BME280;65284;51.040;13.722;2023-03-31T03:34:34;98877.56;;;10.14;73.88
76448;BME280;65284;51.040;13.722;2023-03-31T03:37:00;98873.94;;;10.15;73.67
76448;BME280;65284;51.040;13.722;2023-03-31T03:39:27;98871.88;;;10.17;73.89
76448;BME280;65284;51.040;13.722;2023-03-31T03:41:53;98874.16;;;10.20;73.61
76448;BME280;65284;51.040;13.722;2023-03-31T03:44:19;98876.81;;;10.20;73.45
76448;BME280;65284;51.040;13.722;2023-03-31T03:46:46;98876.38;;;10.16;73.35
76448;BME280;65284;51.040;13.722;2023-03-31T03:49:13;98869.50;;;10.22;73.43
76448;BME280;65284;51.040;13.722;2023-03-31T03:51:39;98865.22;;;10.21;73.07
76448;BME280;65284;51.040;13.722;2023-03-31T03:54:06;98863.56;;;10.20;73.48
76448;BME280;65284;51.040;13.722;2023-03-31T03:56:32;98865.22;;;10.21;73.87
76448;BME280;65284;51.040;13.722;2023-03-31T03:58:58;98862.56;;;10.21;73.46
76448;BME280;65284;51.040;13.722;2023-03-31T04:01:25;98858.25;;;10.20;73.45
76448;BME280;65284;51.040;13.722;2023-03-31T04:03:51;98847.19;;;10.16;73.76
76448;BME280;65284;51.040;13.722;2023-03-31T04:06:17;98844.59;;;10.23;73.52
76448;BME280;65284;51.040;13.722;2023-03-31T04:08:44;98843.34;;;10.19;73.58
76448;BME280;65284;51.040;13.722;2023-03-31T04:11:15;98840.25;;;10.15;73.56
76448;BME280;65284;51.040;13.722;2023-03-31T04:13:45;98831.16;;;10.24;73.20
76448;BME280;65284;51.040;13.722;2023-03-31T04:16:12;98831.09;;;10.18;73.78
76448;BME280;65284;51.040;13.722;2023-03-31T04:18:39;98832.19;;;10.23;73.64
76448;BME280;65284;51.040;13.722;2023-03-31T04:21:09;98828.16;;;10.28;73.26
76448;BME280;65284;51.040;13.722;2023-03-31T04:23:38;98828.50;;;10.24;73.47
76448;BME280;65284;51.040;13.722;2023-03-31T04:26:15;98831.16;;;10.24;73.49
76448;BME280;65284;51.040;13.722;2023-03-31T04:28:43;98822.38;;;10.24;73.48
76448;BME280;65284;51.040;13.722;2023-03-31T04:31:13;98826.59;;;10.18;73.81
76448;BME280;65284;51.040;13.722;2023-03-31T04:33:53;98809.88;;;10.18;73.95
76448;BME280;65284;51.040;13.722;2023-03-31T04:36:20;98813.50;;;10.17;73.91
76448;BME280;65284;51.040;13.722;2023-03-31T04:38:48;98794.56;;;10.20;73.85
76448;BME280;65284;51.040;13.722;2023-03-31T04:41:21;98797.97;;;10.14;74.13
76448;BME280;65284;51.040;13.722;2023-03-31T04:43:48;98809.59;;;10.13;74.45
76448;BME280;65284;51.040;13.722;2023-03-31T04:46:15;98796.78;;;10.16;73.85
76448;BME280;65284;51.040;13.722;2023-03-31T04:48:41;98789.44;;;10.33;73.37
76448;BME280;65284;51.040;13.722;2023-03-31T04:51:08;98788.72;;;10.24;73.41
76448;BME280;65284;51.040;13.722;2023-03-31T04:53:35;98784.22;;;10.25;73.76
76448;BME280;65284;51.040;13.722;2023-03-31T04:56:02;98784.22;;;10.25;73.64
76448;BME280;65284;51.040;13.722;2023-03-31T04:58:29;98777.06;;;10.25;73.74
76448;BME280;65284;51.040;13.722;2023-03-31T05:00:56;98776.94;;;10.27;73.52
76448;BME280;65284;51.040;13.722;2023-03-31T05:03:22;98779.72;;;10.25;73.72
76448;BME280;65284;51.040;13.722;2023-03-31T05:05:49;98770.88;;;10.33;73.25
76448;BME280;65284;51.040;13.722;2023-03-31T05:08:15;98767.94;;;10.28;73.38
76448;BME280;65284;51.040;13.722;2023-03-31T05:10:42;98771.63;;;10.27;73.55
76448;BME280;65284;51.040;13.722;2023-03-31T05:13:09;98769.94;;;10.26;73.26
76448;BME280;65284;51.040;13.722;2023-03-31T05:15:37;98765.50;;;10.27;73.62
76448;BME280;65284;51.040;13.722;2023-03-31T05:18:05;98759.31;;;10.26;73.56
76448;BME280;65284;51.040;13.722;2023-03-31T05:20:31;98756.94;;;10.31;73.23
76448;BME280;65284;51.040;13.722;2023-03-31T05:22:58;98751.09;;;10.36;73.13
76448;BME280;65284;51.040;13.722;2023-03-31T05:25:24;98757.38;;;10.35;73.04
76448;BME280;65284;51.040;13.722;2023-03-31T05:27:51;98748.50;;;10.42;72.68
76448;BME280;65284;51.040;13.722;2023-03-31T05:30:17;98741.28;;;10.36;73.15
76448;BME280;65284;51.040;13.722;2023-03-31T05:32:44;98733.31;;;10.36;72.73
76448;BME280;65284;51.040;13.722;2023-03-31T05:35:10;98723.97;;;10.40;72.82
76448;BME280;65284;51.040;13.722;2023-03-31T05:37:36;98713.34;;;10.40;72.98
76448;BME280;65284;51.040;13.722;2023-03-31T05:40:03;98707.47;;;10.45;72.54
76448;BME280;65284;51.040;13.722;2023-03-31T05:42:30;98698.09;;;10.49;72.70
76448;BME280;65284;51.040;13.722;2023-03-31T05:44:57;98700.75;;;10.49;72.90
76448;BME280;65284;51.040;13.722;2023-03-31T05:47:23;98694.25;;;10.52;72.85
76448;BME280;65284;51.040;13.722;2023-03-31T05:49:50;98693.84;;;10.55;72.92
76448;BME280;65284;51.040;13.722;2023-03-31T05:52:17;98682.66;;;10.59;72.74
76448;BME280;65284;51.040;13.722;2023-03-31T05:54:43;98682.88;;;10.64;72.52
76448;BME280;65284;51.040;13.722;2023-03-31T05:57:10;98675.97;;;10.70;72.35
76448;BME280;65284;51.040;13.722;2023-03-31T05:59:37;98672.72;;;10.68;72.38
76448;BME280;65284;51.040;13.722;2023-03-31T06:02:03;98671.50;;;10.70;72.35
76448;BME280;65284;51.040;13.722;2023-03-31T06:04:30;98669.47;;;10.73;72.57
76448;BME280;65284;51.040;13.722;2023-03-31T06:06:58;98663.97;;;10.74;72.65
76448;BME280;65284;51.040;13.722;2023-03-31T06:09:25;98655.84;;;10.82;72.15
76448;BME280;65284;51.040;13.722;2023-03-31T06:11:51;98654.19;;;10.81;72.32
76448;BME280;65284;51.040;13.722;2023-03-31T06:14:18;98657.25;;;10.78;72.62
76448;BME280;65284;51.040;13.722;2023-03-31T06:16:44;98646.63;;;10.78;72.59
76448;BME280;65284;51.040;13.722;2023-03-31T06:19:12;98656.44;;;10.78;72.82
76448;BME280;65284;51.040;13.722;2023-03-31T06:21:39;98650.50;;;10.76;73.14
76448;BME280;65284;51.040;13.722;2023-03-31T06:24:07;98642.94;;;10.79;72.75
76448;BME280;65284;51.040;13.722;2023-03-31T06:26:34;98645.06;;;10.90;72.69
76448;BME280;65284;51.040;13.722;2023-03-31T06:29:00;98646.25;;;10.88;72.83
76448;BME280;65284;51.040;13.722;2023-03-31T06:31:27;98630.31;;;10.88;73.07
76448;BME280;65284;51.040;13.722;2023-03-31T06:33:54;98623.38;;;10.87;72.80
76448;BME280;65284;51.040;13.722;2023-03-31T06:36:21;98621.78;;;10.92;72.69
76448;BME280;65284;51.040;13.722;2023-03-31T06:38:49;98620.75;;;10.93;72.52
76448;BME280;65284;51.040;13.722;2023-03-31T06:41:17;98609.72;;;10.97;72.54
76448;BME280;65284;51.040;13.722;2023-03-31T06:43:45;98619.78;;;11.01;72.35
76448;BME280;65284;51.040;13.722;2023-03-31T06:46:12;98618.78;;;11.09;72.25
76448;BME280;65284;51.040;13.722;2023-03-31T06:48:40;98615.78;;;11.25;71.79
76448;BME280;65284;51.040;13.722;2023-03-31T06:51:07;98620.34;;;11.45;71.29
76448;BME280;65284;51.040;13.722;2023-03-31T06:53:34;98615.84;;;11.52;71.09
76448;BME280;65284;51.040;13.722;2023-03-31T06:56:01;98611.78;;;11.69;70.85
76448;BME280;65284;51.040;13.722;2023-03-31T06:58:28;98612.63;;;11.76;70.69
76448;BME280;65284;51.040;13.722;2023-03-31T07:00:57;98606.28;;;11.84;70.00
76448;BME280;65284;51.040;13.722;2023-03-31T07:03:24;98601.22;;;11.96;69.18
76448;BME280;65284;51.040;13.722;2023-03-31T07:05:52;98604.91;;;12.01;69.66
76448;BME280;65284;51.040;13.722;2023-03-31T07:08:19;98596.31;;;12.13;68.92
76448;BME280;65284;51.040;13.722;2023-03-31T07:10:46;98596.28;;;12.19;68.30
76448;BME280;65284;51.040;13.722;2023-03-31T07:13:14;98602.44;;;12.20;68.08
76448;BME280;65284;51.040;13.722;2023-03-31T07:15:41;98598.56;;;12.16;67.88
76448;BME280;65284;51.040;13.722;2023-03-31T07:18:07;98593.00;;;12.24;67.62
76448;BME280;65284;51.040;13.722;2023-03-31T07:20:34;98605.28;;;12.38;67.13
76448;BME280;65284;51.040;13.722;2023-03-31T07:23:03;98595.44;;;12.32;67.02
76448;BME280;65284;51.040;13.722;2023-03-31T07:25:31;98579.50;;;12.25;67.31
76448;BME280;65284;51.040;13.722;2023-03-31T07:27:57;98586.03;;;12.23;67.67
76448;BME280;65284;51.040;13.722;2023-03-31T07:30:24;98587.06;;;12.28;67.65
76448;BME280;65284;51.040;13.722;2023-03-31T07:32:51;98577.59;;;12.52;66.37
76448;BME280;65284;51.040;13.722;2023-03-31T07:35:18;98571.25;;;12.47;66.22
76448;BME280;65284;51.040;13.722;2023-03-31T07:37:46;98558.13;;;12.59;66.70
76448;BME280;65284;51.040;13.722;2023-03-31T07:40:17;98565.06;;;12.66;66.32
76448;BME280;65284;51.040;13.722;2023-03-31T07:42:45;98557.25;;;12.78;66.11
76448;BME280;65284;51.040;13.722;2023-03-31T07:45:15;98560.41;;;13.00;66.02
76448;BME280;65284;51.040;13.722;2023-03-31T07:47:42;98551.81;;;12.98;65.33
76448;BME280;65284;51.040;13.722;2023-03-31T07:50:10;98551.97;;;13.10;65.17
76448;BME280;65284;51.040;13.722;2023-03-31T07:52:36;98549.28;;;13.16;64.96
76448;BME280;65284;51.040;13.722;2023-03-31T07:55:04;98548.03;;;13.26;64.29
76448;BME280;65284;51.040;13.722;2023-03-31T07:57:30;98539.34;;;13.37;63.94
76448;BME280;65284;51.040;13.722;2023-03-31T07:59:57;98537.75;;;13.23;64.46
76448;BME280;65284;51.040;13.722;2023-03-31T08:02:23;98537.16;;;13.20;64.29
76448;BME280;65284;51.040;13.722;2023-03-31T08:04:50;98532.84;;;13.19;64.17
76448;BME280;65284;51.040;13.722;2023-03-31T08:07:16;98528.09;;;13.21;63.89
76448;BME280;65284;51.040;13.722;2023-03-31T08:09:44;98536.97;;;13.15;64.02
76448;BME280;65284;51.040;13.722;2023-03-31T08:12:11;98534.91;;;13.17;63.82
76448;BME280;65284;51.040;13.722;2023-03-31T08:14:38;98547.63;;;13.15;64.09
76448;BME280;65284;51.040;13.722;2023-03-31T08:17:08;98542.69;;;13.19;63.79
76448;BME280;65284;51.040;13.722;2023-03-31T08:19:35;98545.56;;;13.17;63.76
76448;BME280;65284;51.040;13.722;2023-03-31T08:22:02;98543.75;;;13.11;63.99
76448;BME280;65284;51.040;13.722;2023-03-31T08:24:28;98548.91;;;13.06;64.10
76448;BME280;65284;51.040;13.722;2023-03-31T08:26:55;98531.06;;;13.13;63.71
76448;BME280;65284;51.040;13.722;2023-03-31T08:29:21;98541.72;;;13.13;63.90
76448;BME280;65284;51.040;13.722;2023-03-31T08:31:47;98541.09;;;13.11;63.83
76448;BME280;65284;51.040;13.722;2023-03-31T08:34:14;98537.81;;;13.09;63.99
76448;BME280;65284;51.040;13.722;2023-03-31T08:36:40;98536.56;;;13.12;64.19
76448;BME280;65284;51.040;13.722;2023-03-31T08:39:07;98524.28;;;13.11;63.70
76448;BME280;65284;51.040;13.722;2023-03-31T08:41:56;98523.47;;;13.10;63.79
76448;BME280;65284;51.040;13.722;2023-03-31T08:44:34;98522.88;;;13.08;64.07
76448;BME280;65284;51.040;13.722;2023-03-31T08:47:03;98525.56;;;13.02;64.02
76448;BME280;65284;51.040;13.722;2023-03-31T08:49:38;98520.69;;;12.92;64.32
76448;BME280;65284;51.040;13.722;2023-03-31T08:52:12;98514.94;;;12.95;64.41
76448;BME280;65284;51.040;13.722;2023-03-31T08:54:45;98513.72;;;12.91;64.52
76448;BME280;65284;51.040;13.722;2023-03-31T08:57:18;98505.13;;;12.89;64.50
76448;BME280;65284;51.040;13.722;2023-03-31T08:59:46;98496.69;;;12.92;64.82
76448;BME280;65284;51.040;13.722;2023-03-31T09:02:20;98499.38;;;12.92;64.94
76448;BME280;65284;51.040;13.722;2023-03-31T09:05:00;98499.41;;;12.85;65.78
76448;BME280;65284;51.040;13.722;2023-03-31T09:10:38;98499.78;;;12.89;66.25
76448;BME280;65284;51.040;13.722;2023-03-31T09:15:59;98486.00;;;12.60;65.36
76448;BME280;65284;51.040;13.722;2023-03-31T09:18:33;98463.09;;;12.52;65.66
76448;BME280;65284;51.040;13.722;2023-03-31T09:24:05;98473.34;;;12.49;65.93
76448;BME280;65284;51.040;13.722;2023-03-31T09:26:45;98459.81;;;12.57;65.53
76448;BME280;65284;51.040;13.722;2023-03-31T09:29:25;98469.22;;;12.53;65.91
76448;BME280;65284;51.040;13.722;2023-03-31T09:34:45;98454.47;;;12.50;66.10
76448;BME280;65284;51.040;13.722;2023-03-31T09:37:12;98457.53;;;12.61;66.02
76448;BME280;65284;51.040;13.722;2023-03-31T09:39:39;98452.59;;;12.64;65.94
76448;BME280;65284;51.040;13.722;2023-03-31T09:42:07;98438.50;;;12.57;66.17
76448;BME280;65284;51.040;13.722;2023-03-31T09:44:45;98436.84;;;12.56;65.92
76448;BME280;65284;51.040;13.722;2023-03-31T09:47:30;98431.53;;;12.56;66.05
76448;BME280;65284;51.040;13.722;2023-03-31T09:49:57;98429.84;;;12.62;66.01
76448;BME280;65284;51.040;13.722;2023-03-31T09:52:30;98424.91;;;12.65;65.99
76448;BME280;65284;51.040;13.722;2023-03-31T09:55:02;98434.28;;;12.74;66.04
76448;BME280;65284;51.040;13.722;2023-03-31T09:57:34;98419.16;;;12.68;65.82
76448;BME280;65284;51.040;13.722;2023-03-31T10:00:05;98433.31;;;12.69;66.42
76448;BME280;65284;51.040;13.722;2023-03-31T10:02:56;98426.13;;;12.69;66.72
76448;BME280;65284;51.040;13.722;2023-03-31T10:05:37;98420.59;;;12.71;66.54
76448;BME280;65284;51.040;13.722;2023-03-31T10:08:25;98411.59;;;12.65;66.52
76448;BME280;65284;51.040;13.722;2023-03-31T10:11:05;98400.00;;;12.53;66.87
76448;BME280;65284;51.040;13.722;2023-03-31T10:13:40;98397.50;;;12.58;65.90
76448;BME280;65284;51.040;13.722;2023-03-31T10:16:12;98408.78;;;12.60;64.59
76448;BME280;65284;51.040;13.722;2023-03-31T10:18:41;98412.41;;;12.66;64.49
76448;BME280;65284;51.040;13.722;2023-03-31T10:21:20;98403.31;;;12.48;64.71
76448;BME280;65284;51.040;13.722;2023-03-31T10:23:49;98390.56;;;12.57;64.44
76448;BME280;65284;51.040;13.722;2023-03-31T10:26:19;98396.72;;;12.51;64.81
76448;BME280;65284;51.040;13.722;2023-03-31T10:28:48;98396.72;;;12.51;65.37
76448;BME280;65284;51.040;13.722;2023-03-31T10:31:18;98388.09;;;12.56;65.58
76448;BME280;65284;51.040;13.722;2023-03-31T10:33:47;98381.97;;;12.55;65.45
76448;BME280;65284;51.040;13.722;2023-03-31T10:36:25;98375.84;;;12.48;65.27
76448;BME280;65284;51.040;13.722;2023-03-31T10:38:53;98376.31;;;12.38;65.19
76448;BME280;65284;51.040;13.722;2023-03-31T10:41:21;98370.75;;;12.46;64.98
76448;BME280;65284;51.040;13.722;2023-03-31T10:43:50;98366.47;;;12.45;65.70
76448;BME280;65284;51.040;13.722;2023-03-31T10:46:20;98352.44;;;12.57;65.30
76448;BME280;65284;51.040;13.722;2023-03-31T10:48:46;98365.19;;;12.48;65.55
76448;BME280;65284;51.040;13.722;2023-03-31T10:51:26;98370.56;;;12.41;66.11
76448;BME280;65284;51.040;13.722;2023-03-31T10:53:54;98367.66;;;12.49;66.53
76448;BME280;65284;51.040;13.722;2023-03-31T10:56:41;98353.72;;;12.47;67.03
76448;BME280;65284;51.040;13.722;2023-03-31T11:04:44;98343.88;;;12.48;68.63
76448;BME280;65284;51.040;13.722;2023-03-31T11:13:04;98326.72;;;12.44;69.70
76448;BME280;65284;51.040;13.722;2023-03-31T11:16:00;98329.19;;;12.39;69.46
76448;BME280;65284;51.040;13.722;2023-03-31T11:18:38;98320.09;;;12.53;69.31
76448;BME280;65284;51.040;13.722;2023-03-31T11:29:34;98306.53;;;12.29;71.50
76448;BME280;65284;51.040;13.722;2023-03-31T11:32:39;98300.63;;;12.27;71.25
76448;BME280;65284;51.040;13.722;2023-03-31T11:37:57;98292.88;;;12.19;72.91
76448;BME280;65284;51.040;13.722;2023-03-31T11:43:19;98280.44;;;12.06;74.00
76448;BME280;65284;51.040;13.722;2023-03-31T11:46:00;98276.97;;;12.06;74.06
76448;BME280;65284;51.040;13.722;2023-03-31T11:51:19;98272.06;;;12.03;75.81
76448;BME280;65284;51.040;13.722;2023-03-31T11:53:48;98268.59;;;12.02;74.12
76448;BME280;65284;51.040;13.722;2023-03-31T11:56:17;98264.19;;;11.90;75.18
76448;BME280;65284;51.040;13.722;2023-03-31T11:59:03;98275.63;;;11.83;75.05
76448;BME280;65284;51.040;13.722;2023-03-31T12:01:41;98270.75;;;11.80;75.57
76448;BME280;65284;51.040;13.722;2023-03-31T12:06:51;98270.97;;;11.72;76.30
76448;BME280;65284;51.040;13.722;2023-03-31T12:09:31;98260.00;;;11.49;77.06
76448;BME280;65284;51.040;13.722;2023-03-31T12:12:07;98256.53;;;11.42;76.79
76448;BME280;65284;51.040;13.722;2023-03-31T12:14:42;98250.16;;;11.56;76.90
76448;BME280;65284;51.040;13.722;2023-03-31T12:17:13;98251.84;;;11.44;77.32
76448;BME280;65284;51.040;13.722;2023-03-31T12:19:52;98248.56;;;11.42;77.01
76448;BME280;65284;51.040;13.722;2023-03-31T12:22:27;98249.81;;;11.39;78.24
76448;BME280;65284;51.040;13.722;2023-03-31T12:24:54;98235.69;;;11.38;77.94
76448;BME280;65284;51.040;13.722;2023-03-31T12:27:41;98232.22;;;11.45;77.79
76448;BME280;65284;51.040;13.722;2023-03-31T12:30:16;98223.63;;;11.43;78.22
76448;BME280;65284;51.040;13.722;2023-03-31T12:32:48;98219.56;;;11.40;78.52
76448;BME280;65284;51.040;13.722;2023-03-31T12:38:21;98212.19;;;11.35;79.16
76448;BME280;65284;51.040;13.722;2023-03-31T12:41:27;98205.56;;;11.58;77.79
76448;BME280;65284;51.040;13.722;2023-03-31T12:44:12;98198.06;;;11.42;78.64
76448;BME280;65284;51.040;13.722;2023-03-31T12:49:31;98192.59;;;11.36;78.98
76448;BME280;65284;51.040;13.722;2023-03-31T12:52:06;98181.97;;;11.30;78.89
76448;BME280;65284;51.040;13.722;2023-03-31T12:54:54;98180.38;;;11.22;79.33
76448;BME280;65284;51.040;13.722;2023-03-31T12:57:24;98175.91;;;11.16;80.04
76448;BME280;65284;51.040;13.722;2023-03-31T13:02:35;98164.47;;;11.09;81.34
76448;BME280;65284;51.040;13.722;2023-03-31T13:08:03;98146.66;;;11.16;81.67
76448;BME280;65284;51.040;13.722;2023-03-31T13:10:31;98152.19;;;11.14;81.57
76448;BME280;65284;51.040;13.722;2023-03-31T13:13:12;98144.81;;;11.16;81.89
76448;BME280;65284;51.040;13.722;2023-03-31T13:15:49;98142.56;;;11.20;82.06
76448;BME280;65284;51.040;13.722;2023-03-31T13:18:19;98138.88;;;11.21;82.26
76448;BME280;65284;51.040;13.722;2023-03-31T13:20:46;98131.94;;;11.20;81.85
76448;BME280;65284;51.040;13.722;2023-03-31T13:23:23;98136.38;;;11.26;81.91
76448;BME280;65284;51.040;13.722;2023-03-31T13:25:55;98121.88;;;11.29;82.75
76448;BME280;65284;51.040;13.722;2023-03-31T13:31:00;98104.44;;;11.39;82.38
76448;BME280;65284;51.040;13.722;2023-03-31T13:33:39;98105.81;;;11.49;81.87
76448;BME280;65284;51.040;13.722;2023-03-31T13:39:12;98098.28;;;11.77;79.71
76448;BME280;65284;51.040;13.722;2023-03-31T13:42:47;98098.19;;;11.91;77.88
76448;BME280;65284;51.040;13.722;2023-03-31T13:45:09;98089.97;;;11.99;76.26
76448;BME280;65284;51.040;13.722;2023-03-31T13:51:09;98073.66;;;11.89;74.66
76448;BME280;65284;51.040;13.722;2023-03-31T13:56:50;98090.06;;;11.79;74.96
76448;BME280;65284;51.040;13.722;2023-03-31T14:05:30;98089.44;;;11.83;73.16
76448;BME280;65284;51.040;13.722;2023-03-31T14:08:04;98088.41;;;11.84;71.82
76448;BME280;65284;51.040;13.722;2023-03-31T14:10:37;98089.25;;;11.78;71.89
76448;BME280;65284;51.040;13.722;2023-03-31T14:13:12;98098.19;;;11.91;71.48
76448;BME280;65284;51.040;13.722;2023-03-31T14:15:56;98090.06;;;11.86;71.96
76448;BME280;65284;51.040;13.722;2023-03-31T14:18:27;98078.97;;;11.89;71.65
76448;BME280;65284;51.040;13.722;2023-03-31T14:23:29;98085.72;;;12.16;70.01
76448;BME280;65284;51.040;13.722;2023-03-31T14:28:55;98078.06;;;12.45;69.35
76448;BME280;65284;51.040;13.722;2023-03-31T14:31:34;98081.94;;;12.49;69.46
76448;BME280;65284;51.040;13.722;2023-03-31T14:37:04;98083.09;;;12.71;67.27
76448;BME280;65284;51.040;13.722;2023-03-31T14:39:40;98078.53;;;12.79;67.42
76448;BME280;65284;51.040;13.722;2023-03-31T14:42:13;98067.88;;;12.79;67.49
76448;BME280;65284;51.040;13.722;2023-03-31T14:44:41;98089.56;;;12.64;66.52
76448;BME280;65284;51.040;13.722;2023-03-31T14:47:24;98104.22;;;12.73;65.61
76448;BME280;65284;51.040;13.722;2023-03-31T14:50:16;98059.81;;;12.67;65.83
76448;BME280;65284;51.040;13.722;2023-03-31T14:52:49;98053.88;;;12.83;65.90
76448;BME280;65284;51.040;13.722;2023-03-31T14:55:19;98048.09;;;13.05;64.86
76448;BME280;65284;51.040;13.722;2023-03-31T14:57:50;98047.16;;;13.29;64.84
76448;BME280;65284;51.040;13.722;2023-03-31T15:00:29;98037.88;;;13.62;64.01
76448;BME280;65284;51.040;13.722;2023-03-31T15:02:58;98038.34;;;13.71;63.38